createdAt,value
2022-11-28T00:01:41.336Z,4.60
2022-11-28T00:04:10.859Z,4.57
2022-11-28T00:06:41.816Z,4.57
2022-11-28T00:09:10.820Z,4.56
2022-11-28T00:11:40.995Z,4.57
2022-11-28T00:14:10.237Z,4.62
2022-11-28T00:16:40.603Z,4.64
2022-11-28T00:19:09.601Z,4.63
2022-11-28T00:21:38.300Z,4.64
2022-11-28T00:24:07.411Z,4.66
2022-11-28T00:26:37.312Z,4.72
2022-11-28T00:29:08.052Z,4.79
2022-11-28T00:31:42.689Z,4.82
2022-11-28T00:34:14.487Z,4.85
2022-11-28T00:36:45.415Z,4.89
2022-11-28T00:39:14.945Z,4.91
2022-11-28T00:41:43.799Z,4.94
2022-11-28T00:44:12.439Z,4.94
2022-11-28T00:46:41.425Z,4.94
2022-11-28T00:49:10.110Z,4.92
2022-11-28T00:51:40.076Z,4.96
2022-11-28T00:54:09.478Z,4.99
2022-11-28T00:56:41.101Z,4.94
2022-11-28T00:59:09.869Z,4.93
2022-11-28T01:01:40.937Z,4.93
2022-11-28T01:04:12.531Z,4.91
2022-11-28T01:06:44.357Z,4.88
2022-11-28T01:09:15.096Z,4.87
2022-11-28T01:11:45.081Z,4.83
2022-11-28T01:14:14.489Z,4.83
2022-11-28T01:16:43.285Z,4.78
2022-11-28T01:19:12.106Z,4.76
2022-11-28T01:21:42.121Z,4.76
2022-11-28T01:24:10.679Z,4.73
2022-11-28T01:26:41.076Z,4.69
2022-11-28T01:29:09.917Z,4.68
2022-11-28T01:31:39.302Z,4.65
2022-11-28T01:34:07.776Z,4.64
2022-11-28T01:36:35.982Z,4.62
2022-11-28T01:39:05.651Z,4.62
2022-11-28T01:41:34.152Z,4.63
2022-11-28T01:44:09.227Z,4.61
2022-11-28T01:46:38.017Z,4.57
2022-11-28T01:49:13.860Z,4.53
2022-11-28T01:51:46.319Z,4.50
2022-11-28T01:54:17.775Z,4.46
2022-11-28T01:56:54.203Z,4.45
2022-11-28T01:59:27.693Z,4.42
2022-11-28T02:01:56.215Z,4.40
2022-11-28T02:04:28.446Z,4.39
2022-11-28T02:06:57.096Z,4.39
2022-11-28T02:09:26.991Z,4.44
2022-11-28T02:12:12.722Z,4.43
2022-11-28T02:14:54.969Z,4.44
2022-11-28T02:17:35.916Z,4.46
2022-11-28T02:20:50.513Z,4.46
2022-11-28T02:23:23.511Z,4.46
2022-11-28T02:26:14.929Z,4.46
2022-11-28T02:29:27.687Z,4.46
2022-11-28T02:32:16.772Z,4.47
2022-11-28T02:34:52.388Z,4.50
2022-11-28T02:37:37.638Z,4.57
2022-11-28T02:40:14.830Z,4.63
2022-11-28T02:42:55.079Z,4.66
2022-11-28T02:45:30.724Z,4.71
2022-11-28T02:48:04.617Z,4.72
2022-11-28T02:50:39.873Z,4.78
2022-11-28T02:53:13.820Z,4.84
2022-11-28T02:55:44.756Z,4.90
2022-11-28T02:58:13.555Z,4.96
2022-11-28T03:00:47.958Z,5.02
2022-11-28T03:03:54.734Z,5.06
2022-11-28T03:06:34.196Z,5.13
2022-11-28T03:09:19.739Z,5.17
2022-11-28T03:11:57.411Z,5.20
2022-11-28T03:14:40.908Z,5.26
2022-11-28T03:17:16.360Z,5.36
2022-11-28T03:19:53.198Z,5.43
2022-11-28T03:22:29.941Z,5.45
2022-11-28T03:25:05.930Z,5.45
2022-11-28T03:27:38.968Z,5.45
2022-11-28T03:30:14.760Z,5.42
2022-11-28T03:32:45.099Z,5.41
2022-11-28T03:35:18.106Z,5.39
2022-11-28T03:37:52.682Z,5.41
2022-11-28T03:40:26.214Z,5.41
2022-11-28T03:42:59.740Z,5.39
2022-11-28T03:45:33.042Z,5.31
2022-11-28T03:48:05.135Z,5.27
2022-11-28T03:50:36.541Z,5.23
2022-11-28T03:53:13.701Z,5.17
2022-11-28T03:55:47.774Z,5.11
2022-11-28T03:58:24.290Z,5.06
2022-11-28T04:01:00.644Z,5.03
2022-11-28T04:03:37.851Z,5.04
2022-11-28T04:06:16.663Z,5.04
2022-11-28T04:08:53.717Z,5.01
2022-11-28T04:11:26.739Z,4.99
2022-11-28T04:13:59.471Z,4.97
2022-11-28T04:16:36.560Z,4.95
2022-11-28T04:19:14.738Z,4.90
2022-11-28T04:21:45.809Z,4.84
2022-11-28T04:24:20.120Z,4.80
2022-11-28T04:26:52.584Z,4.75
2022-11-28T04:29:25.830Z,4.69
2022-11-28T04:31:59.017Z,4.66
2022-11-28T04:34:29.714Z,4.66
2022-11-28T04:37:04.278Z,4.68
2022-11-28T04:39:38.949Z,4.65
2022-11-28T04:42:12.135Z,4.66
2022-11-28T04:44:47.831Z,4.66
2022-11-28T04:47:17.245Z,4.63
2022-11-28T04:49:45.968Z,4.60
2022-11-28T04:52:20.267Z,4.51
2022-11-28T04:54:55.705Z,4.43
2022-11-28T04:57:29.870Z,4.40
2022-11-28T05:00:00.093Z,4.35
2022-11-28T05:02:29.713Z,4.31
2022-11-28T05:04:58.491Z,4.27
2022-11-28T05:07:27.023Z,4.26
2022-11-28T05:09:58.032Z,4.22
2022-11-28T05:12:26.479Z,4.22
2022-11-28T05:14:54.836Z,4.16
2022-11-28T05:17:23.470Z,4.13
2022-11-28T05:19:51.768Z,4.10
2022-11-28T05:22:19.952Z,4.06
2022-11-28T05:24:48.209Z,4.03
2022-11-28T05:27:18.329Z,4.00
2022-11-28T05:29:51.966Z,3.97
2022-11-28T05:32:20.932Z,3.97
2022-11-28T05:34:49.972Z,3.97
2022-11-28T05:37:18.275Z,3.94
2022-11-28T05:39:46.354Z,3.94
2022-11-28T05:42:14.410Z,3.89
2022-11-28T05:44:44.695Z,3.86
2022-11-28T05:47:13.272Z,3.84
2022-11-28T05:49:41.908Z,3.81
2022-11-28T05:52:11.130Z,3.79
2022-11-28T05:54:39.483Z,3.79
2022-11-28T05:57:07.741Z,3.77
2022-11-28T05:59:37.165Z,3.77
2022-11-28T06:02:07.405Z,3.74
2022-11-28T06:04:35.776Z,3.73
2022-11-28T06:07:04.156Z,3.69
2022-11-28T06:09:32.796Z,3.66
2022-11-28T06:12:01.276Z,3.62
2022-11-28T06:14:29.557Z,3.58
2022-11-28T06:16:58.035Z,3.54
2022-11-28T06:19:27.859Z,3.51
2022-11-28T06:21:56.612Z,3.49
2022-11-28T06:24:24.956Z,3.47
2022-11-28T06:26:53.369Z,3.44
2022-11-28T06:29:21.459Z,3.41
2022-11-28T06:31:49.617Z,3.41
2022-11-28T06:34:17.994Z,3.40
2022-11-28T06:36:48.072Z,3.43
2022-11-28T06:39:17.719Z,3.44
2022-11-28T06:41:46.546Z,3.45
2022-11-28T06:44:15.974Z,3.46
2022-11-28T06:46:45.761Z,3.47
2022-11-28T06:49:14.611Z,3.51
2022-11-28T06:51:45.896Z,3.55
2022-11-28T06:54:15.585Z,3.58
2022-11-28T06:56:45.031Z,3.63
2022-11-28T06:59:14.038Z,3.70
2022-11-28T07:01:42.443Z,3.78
2022-11-28T07:04:11.449Z,3.87
2022-11-28T07:06:39.893Z,3.95
2022-11-28T07:09:08.297Z,4.04
2022-11-28T07:11:38.371Z,4.11
2022-11-28T07:14:06.715Z,4.14
2022-11-28T07:16:35.219Z,4.20
2022-11-28T07:19:04.178Z,4.27
2022-11-28T07:21:33.495Z,4.34
2022-11-28T07:24:01.970Z,4.39
2022-11-28T07:26:30.315Z,4.46
2022-11-28T07:29:00.334Z,4.50
2022-11-28T07:31:32.437Z,4.57
2022-11-28T07:34:03.695Z,4.62
2022-11-28T07:36:32.926Z,4.65
2022-11-28T07:39:02.999Z,4.67
2022-11-28T07:41:31.803Z,4.71
2022-11-28T07:44:03.158Z,4.74
2022-11-28T07:46:33.544Z,4.78
2022-11-28T07:49:02.791Z,4.80
2022-11-28T07:51:34.833Z,4.84
2022-11-28T07:54:04.787Z,4.88
2022-11-28T07:57:04.606Z,4.91
2022-11-28T07:59:25.173Z,4.92
2022-11-28T08:01:54.222Z,4.94
2022-11-28T08:04:23.024Z,4.98
2022-11-28T08:06:51.513Z,5.01
2022-11-28T08:09:20.335Z,5.05
2022-11-28T08:11:49.376Z,5.10
2022-11-28T08:14:17.794Z,5.13
2022-11-28T08:16:47.666Z,5.17
2022-11-28T08:19:16.092Z,5.20
2022-11-28T08:21:44.451Z,5.26
2022-11-28T08:24:12.698Z,5.32
2022-11-28T08:26:40.849Z,5.38
2022-11-28T08:29:09.322Z,5.43
2022-11-28T08:31:38.571Z,5.50
2022-11-28T08:34:10.878Z,5.56
2022-11-28T08:36:39.520Z,5.64
2022-11-28T08:39:25.044Z,5.69
2022-11-28T08:41:54.353Z,5.75
2022-11-28T08:44:22.995Z,5.79
2022-11-28T08:46:51.612Z,5.79
2022-11-28T08:49:21.903Z,5.78
2022-11-28T08:51:50.267Z,5.81
2022-11-28T08:54:18.606Z,5.87
2022-11-28T08:56:48.786Z,5.94
2022-11-28T08:59:17.379Z,6.02
2022-11-28T09:01:45.839Z,6.09
2022-11-28T09:04:14.480Z,6.20
2022-11-28T09:06:44.227Z,6.29
2022-11-28T09:09:12.636Z,6.35
2022-11-28T09:11:40.999Z,6.38
2022-11-28T09:14:09.422Z,6.39
2022-11-28T09:16:39.775Z,6.46
2022-11-28T09:19:10.869Z,6.50
2022-11-28T09:21:39.208Z,6.49
2022-11-28T09:24:10.443Z,6.49
2022-11-28T09:26:39.193Z,6.56
2022-11-28T09:29:07.720Z,6.62
2022-11-28T09:31:35.923Z,6.61
2022-11-28T09:34:24.478Z,6.66
2022-11-28T09:36:52.527Z,6.63
2022-11-28T09:39:22.275Z,6.70
2022-11-28T09:42:08.657Z,6.71
2022-11-28T09:44:43.303Z,6.75
2022-11-28T09:47:20.417Z,6.72
2022-11-28T09:49:54.199Z,6.74
2022-11-28T09:52:30.185Z,6.74
2022-11-28T09:55:07.440Z,6.74
2022-11-28T09:57:41.716Z,6.80
2022-11-28T10:00:19.164Z,6.83
2022-11-28T10:03:00.697Z,6.82
2022-11-28T10:05:37.380Z,6.87
2022-11-28T10:08:17.251Z,6.90
2022-11-28T10:10:55.488Z,6.93
2022-11-28T10:13:46.989Z,6.95
2022-11-28T10:16:25.912Z,6.96
2022-11-28T10:19:00.081Z,6.95
2022-11-28T10:21:35.110Z,6.99
2022-11-28T10:24:08.512Z,7.03
2022-11-28T10:26:41.498Z,7.17
2022-11-28T10:29:23.894Z,7.21
2022-11-28T10:31:56.312Z,7.25
2022-11-28T10:34:30.738Z,7.30
2022-11-28T10:37:02.925Z,7.35
2022-11-28T10:39:31.319Z,7.50
2022-11-28T10:42:14.187Z,7.59
2022-11-28T10:44:56.774Z,7.62
2022-11-28T10:47:50.018Z,7.59
2022-11-28T10:50:32.029Z,7.59
2022-11-28T10:53:36.480Z,7.63
2022-11-28T10:56:15.207Z,7.70
2022-11-28T10:58:56.542Z,7.72
2022-11-28T11:01:27.227Z,7.72
2022-11-28T11:03:55.660Z,7.72
2022-11-28T11:06:36.071Z,7.72
2022-11-28T11:09:13.544Z,7.81
2022-11-28T11:11:55.103Z,7.77
2022-11-28T11:14:35.967Z,7.84
2022-11-28T11:17:04.615Z,7.89
2022-11-28T11:19:34.178Z,7.89
2022-11-28T11:22:06.354Z,7.98
2022-11-28T11:24:34.852Z,8.05
2022-11-28T11:27:16.269Z,8.04
2022-11-28T11:29:50.303Z,8.06
2022-11-28T11:32:22.904Z,8.04
2022-11-28T11:34:52.036Z,8.06
2022-11-28T11:37:31.496Z,8.07
2022-11-28T11:40:00.777Z,8.02
2022-11-28T11:42:31.316Z,8.08
2022-11-28T11:45:27.853Z,8.10
2022-11-28T11:47:56.527Z,8.19
2022-11-28T11:50:27.340Z,8.24
2022-11-28T11:53:06.900Z,8.41
2022-11-28T11:55:41.748Z,8.54
2022-11-28T11:58:12.691Z,8.68
2022-11-28T12:00:45.867Z,8.98
2022-11-28T12:03:24.472Z,9.20
2022-11-28T12:08:51.145Z,9.98
2022-11-28T12:11:24.553Z,10.41
2022-11-28T12:13:53.537Z,10.81
2022-11-28T12:16:40.124Z,11.30
2022-11-28T12:19:20.284Z,11.59
2022-11-28T12:22:04.139Z,11.84
2022-11-28T12:24:40.386Z,11.98
2022-11-28T12:27:27.353Z,12.13
2022-11-28T12:30:16.298Z,12.25
2022-11-28T12:32:59.571Z,12.50
2022-11-28T12:35:36.032Z,12.28
2022-11-28T12:38:15.527Z,11.88
2022-11-28T12:40:56.515Z,11.87
2022-11-28T12:43:38.515Z,11.47
2022-11-28T12:46:16.751Z,11.24
2022-11-28T12:48:55.668Z,11.32
2022-11-28T12:51:38.161Z,11.27
2022-11-28T12:54:25.520Z,11.12
2022-11-28T12:57:00.685Z,11.18
2022-11-28T12:59:43.008Z,10.94
2022-11-28T13:02:26.842Z,10.81
2022-11-28T13:05:40.060Z,10.69
2022-11-28T13:08:37.286Z,10.55
2022-11-28T13:11:20.601Z,10.44
2022-11-28T13:13:56.482Z,10.39
2022-11-28T13:16:31.387Z,10.31
2022-11-28T13:19:06.777Z,10.18
2022-11-28T13:21:43.832Z,9.99
2022-11-28T13:24:28.121Z,9.96
2022-11-28T13:27:08.227Z,9.91
2022-11-28T13:29:44.250Z,9.83
2022-11-28T13:32:21.813Z,9.76
2022-11-28T13:34:50.916Z,9.67
2022-11-28T13:40:25.480Z,9.79
2022-11-28T13:43:08.052Z,9.71
2022-11-28T13:45:39.966Z,9.68
2022-11-28T13:51:39.267Z,9.60
2022-11-28T13:54:49.317Z,9.49
2022-11-28T13:57:40.119Z,9.44
2022-11-28T14:00:23.848Z,9.33
2022-11-28T14:02:54.947Z,9.42
2022-11-28T14:05:30.044Z,9.36
2022-11-28T14:07:59.290Z,9.33
2022-11-28T14:10:40.286Z,9.27
2022-11-28T14:13:28.770Z,9.19
2022-11-28T14:16:11.858Z,9.13
2022-11-28T14:18:58.375Z,9.06
2022-11-28T14:21:40.083Z,9.02
2022-11-28T14:24:19.569Z,9.01
2022-11-28T14:26:48.242Z,8.96
2022-11-28T14:29:26.063Z,8.97
2022-11-28T14:32:22.213Z,8.87
2022-11-28T14:34:47.633Z,8.84
2022-11-28T14:37:45.997Z,8.76
2022-11-28T14:40:29.073Z,8.66
2022-11-28T14:43:28.117Z,8.64
2022-11-28T14:46:38.653Z,8.62
2022-11-28T14:49:24.455Z,8.61
2022-11-28T14:52:38.593Z,8.53
2022-11-28T14:55:19.038Z,8.54
2022-11-28T14:58:00.180Z,8.48
2022-11-28T15:00:33.757Z,8.52
2022-11-28T15:03:30.215Z,8.40
2022-11-28T15:06:04.275Z,8.45
2022-11-28T15:08:53.118Z,8.35
2022-11-28T15:11:34.531Z,8.35
2022-11-28T15:14:11.309Z,8.29
2022-11-28T15:16:49.651Z,8.24
2022-11-28T15:19:25.352Z,8.20
2022-11-28T15:21:56.526Z,8.13
2022-11-28T15:24:27.511Z,8.08
2022-11-28T15:26:58.240Z,8.07
2022-11-28T15:29:29.029Z,8.02
2022-11-28T15:31:59.613Z,7.97
2022-11-28T15:34:31.459Z,7.93
2022-11-28T15:37:03.691Z,7.88
2022-11-28T15:39:36.347Z,7.81
2022-11-28T15:42:06.238Z,7.72
2022-11-28T15:44:36.652Z,7.70
2022-11-28T15:47:05.929Z,7.66
2022-11-28T15:49:38.657Z,7.60
2022-11-28T15:52:08.341Z,7.56
2022-11-28T15:54:41.568Z,7.52
2022-11-28T15:57:21.275Z,7.47
2022-11-28T15:59:49.654Z,7.38
2022-11-28T16:02:23.743Z,7.33
2022-11-28T16:04:56.343Z,7.26
2022-11-28T16:07:26.409Z,7.17
2022-11-28T16:09:59.436Z,7.11
2022-11-28T16:12:29.107Z,7.04
2022-11-28T16:15:02.226Z,6.98
2022-11-28T16:17:34.813Z,6.93
2022-11-28T16:20:04.829Z,6.89
2022-11-28T16:22:37.835Z,6.83
2022-11-28T16:25:15.698Z,6.77
2022-11-28T16:27:48.933Z,6.69
2022-11-28T16:30:30.137Z,6.61
2022-11-28T16:32:58.690Z,6.57
2022-11-28T16:35:29.424Z,6.56
2022-11-28T16:38:16.336Z,6.61
2022-11-28T16:40:45.918Z,6.66
2022-11-28T16:43:22.445Z,6.72
2022-11-28T16:46:00.465Z,6.77
2022-11-28T16:48:30.143Z,6.82
2022-11-28T16:51:33.963Z,6.89
2022-11-28T16:54:31.451Z,6.94
2022-11-28T16:57:14.777Z,6.98
2022-11-28T16:59:44.077Z,7.01
2022-11-28T17:02:18.537Z,7.02
2022-11-28T17:04:48.760Z,7.04
2022-11-28T17:07:19.155Z,7.01
2022-11-28T17:09:50.286Z,6.97
2022-11-28T17:12:25.593Z,6.88
2022-11-28T17:14:54.630Z,6.75
2022-11-28T17:17:24.646Z,6.66
2022-11-28T17:19:53.866Z,6.58
2022-11-28T17:22:25.967Z,6.48
2022-11-28T17:25:00.216Z,6.37
2022-11-28T17:27:28.996Z,6.27
2022-11-28T17:29:57.331Z,6.16
2022-11-28T17:32:25.798Z,6.08
2022-11-28T17:35:04.126Z,5.96
2022-11-28T17:37:32.371Z,5.86
2022-11-28T17:40:19.517Z,5.72
2022-11-28T17:42:48.004Z,5.60
2022-11-28T17:45:16.604Z,5.47
2022-11-28T17:47:45.012Z,5.33
2022-11-28T17:50:13.672Z,5.21
2022-11-28T17:52:42.279Z,5.11
2022-11-28T17:55:11.817Z,4.97
2022-11-28T17:57:40.197Z,4.84
2022-11-28T18:00:10.676Z,4.74
2022-11-28T18:02:47.810Z,4.61
2022-11-28T18:05:17.499Z,4.52
2022-11-28T18:07:46.346Z,4.39
2022-11-28T18:10:17.032Z,4.32
2022-11-28T18:12:45.492Z,4.23
2022-11-28T18:15:13.554Z,4.18
2022-11-28T18:17:41.650Z,4.15
2022-11-28T18:20:11.296Z,4.10
2022-11-28T18:22:39.797Z,4.11
2022-11-28T18:25:09.576Z,4.15
2022-11-28T18:27:39.606Z,4.21
2022-11-28T18:30:08.911Z,4.27
2022-11-28T18:32:37.467Z,4.30
2022-11-28T18:35:05.954Z,4.35
2022-11-28T18:37:34.936Z,4.37
2022-11-28T18:40:08.955Z,4.40
2022-11-28T18:42:39.124Z,4.42
2022-11-28T18:45:09.179Z,4.46
2022-11-28T18:47:37.878Z,4.53
2022-11-28T18:50:08.645Z,4.60
2022-11-28T18:52:37.291Z,4.68
2022-11-28T18:55:06.352Z,4.75
2022-11-28T18:57:35.103Z,4.80
2022-11-28T19:00:06.567Z,4.83
2022-11-28T19:02:35.989Z,4.87
2022-11-28T19:05:05.861Z,4.92
2022-11-28T19:07:34.304Z,4.95
2022-11-28T19:10:02.649Z,5.01
2022-11-28T19:12:31.859Z,5.04
2022-11-28T19:15:02.592Z,5.09
2022-11-28T19:17:33.331Z,5.13
2022-11-28T19:20:01.610Z,5.17
2022-11-28T19:22:29.696Z,5.21
2022-11-28T19:24:58.936Z,5.26
2022-11-28T19:27:27.425Z,5.30
2022-11-28T19:29:55.663Z,5.33
2022-11-28T19:32:25.180Z,5.35
2022-11-28T19:34:57.090Z,5.36
2022-11-28T19:37:25.415Z,5.35
2022-11-28T19:39:54.394Z,5.37
2022-11-28T19:42:24.849Z,5.40
2022-11-28T19:44:54.176Z,5.43
2022-11-28T19:47:23.951Z,5.46
2022-11-28T19:49:52.291Z,5.51
2022-11-28T19:52:21.998Z,5.51
2022-11-28T19:54:50.381Z,5.52
2022-11-28T19:57:20.834Z,5.51
2022-11-28T19:59:49.465Z,5.50
2022-11-28T20:02:21.637Z,5.52
2022-11-28T20:04:50.156Z,5.54
2022-11-28T20:07:18.402Z,5.52
2022-11-28T20:09:49.716Z,5.56
2022-11-28T20:12:18.734Z,5.58
2022-11-28T20:14:47.229Z,5.60
2022-11-28T20:17:15.303Z,5.59
2022-11-28T20:19:45.840Z,5.63
2022-11-28T20:22:14.577Z,5.65
2022-11-28T20:24:42.792Z,5.65
2022-11-28T20:27:12.727Z,5.68
2022-11-28T20:29:40.989Z,5.68
2022-11-28T20:32:10.530Z,5.70
2022-11-28T20:34:39.003Z,5.71
2022-11-28T20:37:07.342Z,5.71
2022-11-28T20:39:35.637Z,5.76
2022-11-28T20:42:04.285Z,5.80
2022-11-28T20:44:34.009Z,5.82
2022-11-28T20:47:02.659Z,5.83
2022-11-28T20:49:30.971Z,5.85
2022-11-28T20:51:58.988Z,5.88
2022-11-28T20:54:27.981Z,5.93
2022-11-28T20:57:20.126Z,5.94
2022-11-28T20:59:46.442Z,5.95
2022-11-28T21:02:15.012Z,5.97
2022-11-28T21:04:43.127Z,5.95
2022-11-28T21:07:11.507Z,5.98
2022-11-28T21:09:39.559Z,6.00
2022-11-28T21:12:08.035Z,6.00
2022-11-28T21:14:36.401Z,6.02
2022-11-28T21:17:05.881Z,6.00
2022-11-28T21:19:34.434Z,6.02
2022-11-28T21:22:02.956Z,6.04
2022-11-28T21:24:31.032Z,6.02
2022-11-28T21:26:59.386Z,6.01
2022-11-28T21:29:27.454Z,5.99
2022-11-28T21:31:55.930Z,5.93
2022-11-28T21:34:25.854Z,5.84
2022-11-28T21:36:55.365Z,5.71
2022-11-28T21:39:23.854Z,5.57
2022-11-28T21:41:52.381Z,5.48
2022-11-28T21:44:21.191Z,5.41
2022-11-28T21:46:50.465Z,5.33
2022-11-28T21:49:19.011Z,5.27
2022-11-28T21:51:49.078Z,5.23
2022-11-28T21:54:18.167Z,5.17
2022-11-28T21:56:47.641Z,5.11
2022-11-28T21:59:16.712Z,5.02
2022-11-28T22:01:46.253Z,4.90
2022-11-28T22:04:14.433Z,4.77
2022-11-28T22:06:42.466Z,4.66
2022-11-28T22:09:12.425Z,4.57
2022-11-28T22:11:41.051Z,4.39
2022-11-28T22:14:09.710Z,4.28
2022-11-28T22:16:39.002Z,4.20
2022-11-28T22:19:07.364Z,4.15
2022-11-28T22:21:53.473Z,4.12
2022-11-28T22:24:25.721Z,4.05
2022-11-28T22:26:56.081Z,3.98
2022-11-28T22:29:25.493Z,3.93
2022-11-28T22:31:55.046Z,3.86
2022-11-28T22:34:24.617Z,3.79
2022-11-28T22:36:53.189Z,3.70
2022-11-28T22:39:22.603Z,3.66
2022-11-28T22:41:52.425Z,3.63
2022-11-28T22:44:22.106Z,3.60
2022-11-28T22:46:50.780Z,3.54
2022-11-28T22:49:20.308Z,3.52
2022-11-28T22:51:49.001Z,3.52
2022-11-28T22:54:17.735Z,3.53
2022-11-28T22:56:46.055Z,3.52
2022-11-28T22:59:17.483Z,3.50
2022-11-28T23:01:45.811Z,3.54
2022-11-28T23:04:14.304Z,3.55
2022-11-28T23:06:43.605Z,3.56
2022-11-28T23:09:15.087Z,3.60
2022-11-28T23:11:46.616Z,3.66
2022-11-28T23:14:19.264Z,3.71
2022-11-28T23:16:49.236Z,3.77
2022-11-28T23:19:20.489Z,3.82
2022-11-28T23:21:50.748Z,3.87
2022-11-28T23:24:23.086Z,3.89
2022-11-28T23:26:52.873Z,3.93
2022-11-28T23:29:23.078Z,3.97
2022-11-28T23:31:51.765Z,4.05
2022-11-28T23:34:20.172Z,4.12
2022-11-28T23:36:49.567Z,4.18
2022-11-28T23:39:19.808Z,4.24
2022-11-28T23:41:49.158Z,4.31
2022-11-28T23:44:19.596Z,4.37
2022-11-28T23:46:49.677Z,4.43
2022-11-28T23:49:18.660Z,4.49
2022-11-28T23:51:47.298Z,4.54
2022-11-28T23:54:15.772Z,4.60
2022-11-28T23:56:44.800Z,4.65
2022-11-28T23:59:13.705Z,4.71
